sensor_id;sensor_type;location;lat;lon;timestamp;P1;durP1;ratioP1;P2;durP2;ratioP2
15603;SDS011;7902;49.042;9.092;2022-07-29T00:00:46;20.43;;;3.80;;
15603;SDS011;7902;49.042;9.092;2022-07-29T00:03:12;19.30;;;4.60;;
15603;SDS011;7902;49.042;9.092;2022-07-29T00:05:38;16.90;;;3.97;;
15603;SDS011;7902;49.042;9.092;2022-07-29T00:08:08;17.10;;;3.77;;
15603;SDS011;7902;49.042;9.092;2022-07-29T00:10:35;15.30;;;4.40;;
15603;SDS011;7902;49.042;9.092;2022-07-29T00:13:01;21.17;;;4.50;;
15603;SDS011;7902;49.042;9.092;2022-07-29T00:15:26;16.47;;;4.97;;
15603;SDS011;7902;49.042;9.092;2022-07-29T00:17:52;25.93;;;10.43;;
15603;SDS011;7902;49.042;9.092;2022-07-29T00:20:19;22.30;;;5.40;;
15603;SDS011;7902;49.042;9.092;2022-07-29T00:22:45;16.83;;;4.53;;
15603;SDS011;7902;49.042;9.092;2022-07-29T00:25:11;18.60;;;4.57;;
15603;SDS011;7902;49.042;9.092;2022-07-29T00:27:37;20.03;;;4.27;;
15603;SDS011;7902;49.042;9.092;2022-07-29T00:30:04;19.20;;;4.87;;
15603;SDS011;7902;49.042;9.092;2022-07-29T00:32:30;16.73;;;4.30;;
15603;SDS011;7902;49.042;9.092;2022-07-29T00:34:56;21.30;;;4.93;;
15603;SDS011;7902;49.042;9.092;2022-07-29T00:37:40;17.17;;;4.20;;
15603;SDS011;7902;49.042;9.092;2022-07-29T00:40:06;16.27;;;3.40;;
15603;SDS011;7902;49.042;9.092;2022-07-29T00:42:43;17.70;;;4.33;;
15603;SDS011;7902;49.042;9.092;2022-07-29T00:45:09;20.73;;;4.70;;
15603;SDS011;7902;49.042;9.092;2022-07-29T00:47:36;17.17;;;4.73;;
15603;SDS011;7902;49.042;9.092;2022-07-29T00:50:03;18.57;;;5.47;;
15603;SDS011;7902;49.042;9.092;2022-07-29T00:52:29;16.23;;;4.40;;
15603;SDS011;7902;49.042;9.092;2022-07-29T00:54:56;18.63;;;5.30;;
15603;SDS011;7902;49.042;9.092;2022-07-29T00:57:21;17.30;;;4.80;;
15603;SDS011;7902;49.042;9.092;2022-07-29T00:59:48;16.73;;;4.83;;
15603;SDS011;7902;49.042;9.092;2022-07-29T01:02:14;20.30;;;4.50;;
15603;SDS011;7902;49.042;9.092;2022-07-29T01:04:39;18.23;;;4.90;;
15603;SDS011;7902;49.042;9.092;2022-07-29T01:07:06;21.87;;;4.63;;
15603;SDS011;7902;49.042;9.092;2022-07-29T01:09:33;18.33;;;5.10;;
15603;SDS011;7902;49.042;9.092;2022-07-29T01:12:00;19.47;;;4.47;;
15603;SDS011;7902;49.042;9.092;2022-07-29T01:14:28;18.40;;;4.80;;
15603;SDS011;7902;49.042;9.092;2022-07-29T01:16:59;22.10;;;4.60;;
15603;SDS011;7902;49.042;9.092;2022-07-29T01:25:03;18.10;;;5.43;;
15603;SDS011;7902;49.042;9.092;2022-07-29T01:30:32;16.87;;;4.57;;
15603;SDS011;7902;49.042;9.092;2022-07-29T01:33:02;16.83;;;4.37;;
15603;SDS011;7902;49.042;9.092;2022-07-29T01:35:33;17.93;;;4.57;;
15603;SDS011;7902;49.042;9.092;2022-07-29T01:40:34;15.00;;;4.07;;
15603;SDS011;7902;49.042;9.092;2022-07-29T01:43:11;16.33;;;4.60;;
15603;SDS011;7902;49.042;9.092;2022-07-29T01:45:40;22.20;;;5.07;;
15603;SDS011;7902;49.042;9.092;2022-07-29T01:48:11;17.43;;;5.27;;
15603;SDS011;7902;49.042;9.092;2022-07-29T01:54:04;17.83;;;4.57;;
15603;SDS011;7902;49.042;9.092;2022-07-29T01:56:36;18.23;;;5.10;;
15603;SDS011;7902;49.042;9.092;2022-07-29T01:59:04;18.70;;;5.40;;
15603;SDS011;7902;49.042;9.092;2022-07-29T02:01:33;21.10;;;4.33;;
15603;SDS011;7902;49.042;9.092;2022-07-29T02:04:04;18.53;;;4.97;;
15603;SDS011;7902;49.042;9.092;2022-07-29T02:06:33;17.50;;;5.00;;
15603;SDS011;7902;49.042;9.092;2022-07-29T02:09:01;16.13;;;4.90;;
15603;SDS011;7902;49.042;9.092;2022-07-29T02:11:29;17.00;;;4.20;;
15603;SDS011;7902;49.042;9.092;2022-07-29T02:13:58;17.87;;;4.97;;
15603;SDS011;7902;49.042;9.092;2022-07-29T02:16:26;19.20;;;5.13;;
15603;SDS011;7902;49.042;9.092;2022-07-29T02:18:56;16.30;;;5.00;;
15603;SDS011;7902;49.042;9.092;2022-07-29T02:21:25;18.57;;;5.00;;
15603;SDS011;7902;49.042;9.092;2022-07-29T02:23:53;17.90;;;5.23;;
15603;SDS011;7902;49.042;9.092;2022-07-29T02:26:21;16.33;;;4.57;;
15603;SDS011;7902;49.042;9.092;2022-07-29T02:28:50;18.40;;;4.77;;
15603;SDS011;7902;49.042;9.092;2022-07-29T02:31:20;18.37;;;4.53;;
15603;SDS011;7902;49.042;9.092;2022-07-29T02:33:48;17.50;;;5.10;;
15603;SDS011;7902;49.042;9.092;2022-07-29T02:36:15;17.80;;;5.40;;
15603;SDS011;7902;49.042;9.092;2022-07-29T02:38:42;18.53;;;5.30;;
15603;SDS011;7902;49.042;9.092;2022-07-29T02:44:18;30.10;;;5.33;;
15603;SDS011;7902;49.042;9.092;2022-07-29T02:46:48;28.93;;;5.40;;
15603;SDS011;7902;49.042;9.092;2022-07-29T02:52:27;15.63;;;4.83;;
15603;SDS011;7902;49.042;9.092;2022-07-29T02:54:56;18.87;;;5.30;;
15603;SDS011;7902;49.042;9.092;2022-07-29T02:57:41;19.37;;;5.37;;
15603;SDS011;7902;49.042;9.092;2022-07-29T03:00:10;16.37;;;5.13;;
15603;SDS011;7902;49.042;9.092;2022-07-29T03:02:39;15.90;;;4.93;;
15603;SDS011;7902;49.042;9.092;2022-07-29T03:05:08;24.97;;;5.67;;
15603;SDS011;7902;49.042;9.092;2022-07-29T03:07:38;17.60;;;5.07;;
15603;SDS011;7902;49.042;9.092;2022-07-29T03:10:06;17.33;;;4.67;;
15603;SDS011;7902;49.042;9.092;2022-07-29T03:12:34;19.50;;;5.20;;
15603;SDS011;7902;49.042;9.092;2022-07-29T03:15:01;18.00;;;5.60;;
15603;SDS011;7902;49.042;9.092;2022-07-29T03:17:27;19.73;;;5.13;;
15603;SDS011;7902;49.042;9.092;2022-07-29T03:19:55;19.07;;;5.23;;
15603;SDS011;7902;49.042;9.092;2022-07-29T03:22:21;19.77;;;5.00;;
15603;SDS011;7902;49.042;9.092;2022-07-29T03:24:47;17.17;;;5.00;;
15603;SDS011;7902;49.042;9.092;2022-07-29T03:27:13;16.93;;;5.73;;
15603;SDS011;7902;49.042;9.092;2022-07-29T03:29:39;17.37;;;4.37;;
15603;SDS011;7902;49.042;9.092;2022-07-29T03:32:05;20.67;;;5.20;;
15603;SDS011;7902;49.042;9.092;2022-07-29T03:34:32;17.30;;;4.87;;
15603;SDS011;7902;49.042;9.092;2022-07-29T03:36:57;19.67;;;4.67;;
15603;SDS011;7902;49.042;9.092;2022-07-29T03:39:25;19.50;;;5.60;;
15603;SDS011;7902;49.042;9.092;2022-07-29T03:41:53;21.33;;;5.30;;
15603;SDS011;7902;49.042;9.092;2022-07-29T03:44:22;19.23;;;5.50;;
15603;SDS011;7902;49.042;9.092;2022-07-29T03:46:51;17.63;;;4.87;;
15603;SDS011;7902;49.042;9.092;2022-07-29T03:49:21;18.20;;;5.30;;
15603;SDS011;7902;49.042;9.092;2022-07-29T03:51:49;21.17;;;5.23;;
15603;SDS011;7902;49.042;9.092;2022-07-29T03:54:15;19.00;;;5.70;;
15603;SDS011;7902;49.042;9.092;2022-07-29T03:56:42;18.30;;;5.53;;
15603;SDS011;7902;49.042;9.092;2022-07-29T03:59:11;18.23;;;5.60;;
15603;SDS011;7902;49.042;9.092;2022-07-29T04:01:39;15.70;;;5.67;;
15603;SDS011;7902;49.042;9.092;2022-07-29T04:04:06;15.80;;;5.37;;
15603;SDS011;7902;49.042;9.092;2022-07-29T04:06:39;17.50;;;5.87;;
15603;SDS011;7902;49.042;9.092;2022-07-29T04:09:07;19.27;;;5.10;;
15603;SDS011;7902;49.042;9.092;2022-07-29T04:11:34;18.77;;;5.27;;
15603;SDS011;7902;49.042;9.092;2022-07-29T04:14:01;16.80;;;4.97;;
15603;SDS011;7902;49.042;9.092;2022-07-29T04:16:27;18.00;;;4.83;;
15603;SDS011;7902;49.042;9.092;2022-07-29T04:18:53;17.30;;;5.80;;
15603;SDS011;7902;49.042;9.092;2022-07-29T04:21:19;18.90;;;5.67;;
15603;SDS011;7902;49.042;9.092;2022-07-29T04:23:44;18.87;;;5.00;;
15603;SDS011;7902;49.042;9.092;2022-07-29T04:26:18;24.63;;;5.23;;
15603;SDS011;7902;49.042;9.092;2022-07-29T04:28:45;17.53;;;5.03;;
15603;SDS011;7902;49.042;9.092;2022-07-29T04:31:12;22.83;;;6.07;;
15603;SDS011;7902;49.042;9.092;2022-07-29T04:33:38;32.63;;;5.27;;
15603;SDS011;7902;49.042;9.092;2022-07-29T04:36:05;17.67;;;5.30;;
15603;SDS011;7902;49.042;9.092;2022-07-29T04:38:31;20.20;;;5.30;;
15603;SDS011;7902;49.042;9.092;2022-07-29T04:40:57;25.10;;;6.00;;
15603;SDS011;7902;49.042;9.092;2022-07-29T04:43:23;19.20;;;5.50;;
15603;SDS011;7902;49.042;9.092;2022-07-29T04:45:49;28.10;;;5.37;;
15603;SDS011;7902;49.042;9.092;2022-07-29T04:48:15;17.00;;;4.93;;
15603;SDS011;7902;49.042;9.092;2022-07-29T04:50:41;25.90;;;5.17;;
15603;SDS011;7902;49.042;9.092;2022-07-29T04:53:07;19.73;;;5.50;;
15603;SDS011;7902;49.042;9.092;2022-07-29T04:55:33;17.30;;;4.70;;
15603;SDS011;7902;49.042;9.092;2022-07-29T04:57:59;23.13;;;5.20;;
15603;SDS011;7902;49.042;9.092;2022-07-29T05:00:25;16.93;;;4.90;;
15603;SDS011;7902;49.042;9.092;2022-07-29T05:02:51;20.50;;;5.27;;
15603;SDS011;7902;49.042;9.092;2022-07-29T05:05:17;18.33;;;4.90;;
15603;SDS011;7902;49.042;9.092;2022-07-29T05:07:43;22.70;;;4.57;;
15603;SDS011;7902;49.042;9.092;2022-07-29T05:10:09;16.07;;;4.63;;
15603;SDS011;7902;49.042;9.092;2022-07-29T05:12:35;19.67;;;4.83;;
15603;SDS011;7902;49.042;9.092;2022-07-29T05:15:01;20.20;;;5.20;;
15603;SDS011;7902;49.042;9.092;2022-07-29T05:17:27;26.60;;;5.40;;
15603;SDS011;7902;49.042;9.092;2022-07-29T05:19:53;24.47;;;6.40;;
15603;SDS011;7902;49.042;9.092;2022-07-29T05:22:19;17.00;;;4.40;;
15603;SDS011;7902;49.042;9.092;2022-07-29T05:24:45;16.70;;;5.10;;
15603;SDS011;7902;49.042;9.092;2022-07-29T05:27:11;20.43;;;5.37;;
15603;SDS011;7902;49.042;9.092;2022-07-29T05:29:38;20.30;;;5.00;;
15603;SDS011;7902;49.042;9.092;2022-07-29T05:32:04;18.33;;;5.20;;
15603;SDS011;7902;49.042;9.092;2022-07-29T05:34:30;19.30;;;5.00;;
15603;SDS011;7902;49.042;9.092;2022-07-29T05:36:56;20.40;;;5.13;;
15603;SDS011;7902;49.042;9.092;2022-07-29T05:39:23;16.53;;;4.40;;
15603;SDS011;7902;49.042;9.092;2022-07-29T05:41:49;18.00;;;5.30;;
15603;SDS011;7902;49.042;9.092;2022-07-29T05:44:14;21.97;;;4.60;;
15603;SDS011;7902;49.042;9.092;2022-07-29T05:46:40;17.87;;;5.03;;
15603;SDS011;7902;49.042;9.092;2022-07-29T05:49:06;16.30;;;4.70;;
15603;SDS011;7902;49.042;9.092;2022-07-29T05:51:33;18.73;;;5.17;;
15603;SDS011;7902;49.042;9.092;2022-07-29T05:53:59;25.30;;;5.50;;
15603;SDS011;7902;49.042;9.092;2022-07-29T05:56:25;20.80;;;4.50;;
15603;SDS011;7902;49.042;9.092;2022-07-29T05:58:52;16.70;;;4.80;;
15603;SDS011;7902;49.042;9.092;2022-07-29T06:01:18;19.80;;;4.90;;
15603;SDS011;7902;49.042;9.092;2022-07-29T06:03:44;15.10;;;3.80;;
15603;SDS011;7902;49.042;9.092;2022-07-29T06:06:10;15.93;;;4.20;;
15603;SDS011;7902;49.042;9.092;2022-07-29T06:08:37;17.80;;;4.13;;
15603;SDS011;7902;49.042;9.092;2022-07-29T06:11:04;14.73;;;4.10;;
15603;SDS011;7902;49.042;9.092;2022-07-29T06:13:31;35.53;;;4.83;;
15603;SDS011;7902;49.042;9.092;2022-07-29T06:15:57;18.47;;;4.60;;
15603;SDS011;7902;49.042;9.092;2022-07-29T06:18:23;15.20;;;4.17;;
15603;SDS011;7902;49.042;9.092;2022-07-29T06:20:50;23.17;;;4.40;;
15603;SDS011;7902;49.042;9.092;2022-07-29T06:23:17;15.63;;;3.57;;
15603;SDS011;7902;49.042;9.092;2022-07-29T06:25:43;17.83;;;4.10;;
15603;SDS011;7902;49.042;9.092;2022-07-29T06:28:09;17.70;;;3.83;;
15603;SDS011;7902;49.042;9.092;2022-07-29T06:30:35;16.73;;;4.50;;
15603;SDS011;7902;49.042;9.092;2022-07-29T06:33:01;17.00;;;4.03;;
15603;SDS011;7902;49.042;9.092;2022-07-29T06:35:27;18.27;;;4.27;;
15603;SDS011;7902;49.042;9.092;2022-07-29T06:37:53;21.03;;;3.90;;
15603;SDS011;7902;49.042;9.092;2022-07-29T06:40:19;15.57;;;3.97;;
15603;SDS011;7902;49.042;9.092;2022-07-29T06:43:04;18.50;;;3.93;;
15603;SDS011;7902;49.042;9.092;2022-07-29T06:45:33;18.50;;;4.10;;
15603;SDS011;7902;49.042;9.092;2022-07-29T06:47:59;16.53;;;3.40;;
15603;SDS011;7902;49.042;9.092;2022-07-29T06:50:25;16.97;;;4.00;;
15603;SDS011;7902;49.042;9.092;2022-07-29T06:52:51;17.03;;;4.10;;
15603;SDS011;7902;49.042;9.092;2022-07-29T06:55:17;18.90;;;4.23;;
15603;SDS011;7902;49.042;9.092;2022-07-29T06:57:45;21.03;;;3.70;;
15603;SDS011;7902;49.042;9.092;2022-07-29T07:00:12;17.47;;;3.83;;
15603;SDS011;7902;49.042;9.092;2022-07-29T07:02:38;16.30;;;3.13;;
15603;SDS011;7902;49.042;9.092;2022-07-29T07:05:04;18.17;;;4.40;;
15603;SDS011;7902;49.042;9.092;2022-07-29T07:07:31;23.83;;;3.60;;
15603;SDS011;7902;49.042;9.092;2022-07-29T07:09:57;17.47;;;3.47;;
15603;SDS011;7902;49.042;9.092;2022-07-29T07:12:23;14.40;;;3.50;;
15603;SDS011;7902;49.042;9.092;2022-07-29T07:14:49;14.53;;;2.83;;
15603;SDS011;7902;49.042;9.092;2022-07-29T07:17:14;18.40;;;3.57;;
15603;SDS011;7902;49.042;9.092;2022-07-29T07:19:40;23.53;;;3.50;;
15603;SDS011;7902;49.042;9.092;2022-07-29T07:22:06;17.37;;;4.03;;
15603;SDS011;7902;49.042;9.092;2022-07-29T07:24:32;16.07;;;3.37;;
15603;SDS011;7902;49.042;9.092;2022-07-29T07:26:58;16.07;;;3.70;;
15603;SDS011;7902;49.042;9.092;2022-07-29T07:29:24;21.27;;;3.73;;
15603;SDS011;7902;49.042;9.092;2022-07-29T07:31:50;23.10;;;3.47;;
15603;SDS011;7902;49.042;9.092;2022-07-29T07:34:16;24.73;;;3.37;;
15603;SDS011;7902;49.042;9.092;2022-07-29T07:36:42;19.57;;;3.67;;
15603;SDS011;7902;49.042;9.092;2022-07-29T07:39:08;14.67;;;3.37;;
15603;SDS011;7902;49.042;9.092;2022-07-29T07:41:33;18.43;;;3.43;;
15603;SDS011;7902;49.042;9.092;2022-07-29T07:43:59;15.17;;;3.20;;
15603;SDS011;7902;49.042;9.092;2022-07-29T07:46:25;17.90;;;3.47;;
15603;SDS011;7902;49.042;9.092;2022-07-29T07:48:51;16.80;;;3.20;;
15603;SDS011;7902;49.042;9.092;2022-07-29T07:51:17;17.90;;;3.20;;
15603;SDS011;7902;49.042;9.092;2022-07-29T07:53:44;19.50;;;3.70;;
15603;SDS011;7902;49.042;9.092;2022-07-29T07:56:10;20.53;;;3.83;;
15603;SDS011;7902;49.042;9.092;2022-07-29T07:58:36;17.20;;;3.43;;
15603;SDS011;7902;49.042;9.092;2022-07-29T08:01:02;18.63;;;3.80;;
15603;SDS011;7902;49.042;9.092;2022-07-29T08:03:28;16.33;;;3.30;;
15603;SDS011;7902;49.042;9.092;2022-07-29T08:05:54;16.50;;;3.50;;
15603;SDS011;7902;49.042;9.092;2022-07-29T08:08:20;17.90;;;3.60;;
15603;SDS011;7902;49.042;9.092;2022-07-29T08:10:46;15.60;;;3.30;;
15603;SDS011;7902;49.042;9.092;2022-07-29T08:13:19;21.70;;;3.20;;
15603;SDS011;7902;49.042;9.092;2022-07-29T08:15:46;22.13;;;3.20;;
15603;SDS011;7902;49.042;9.092;2022-07-29T08:18:12;24.83;;;3.33;;
15603;SDS011;7902;49.042;9.092;2022-07-29T08:20:39;18.17;;;3.67;;
15603;SDS011;7902;49.042;9.092;2022-07-29T08:23:05;14.68;;;3.05;;
15603;SDS011;7902;49.042;9.092;2022-07-29T08:25:37;20.02;;;3.85;;
15603;SDS011;7902;49.042;9.092;2022-07-29T08:28:04;18.35;;;3.60;;
15603;SDS011;7902;49.042;9.092;2022-07-29T08:30:30;16.25;;;3.55;;
15603;SDS011;7902;49.042;9.092;2022-07-29T08:32:58;19.88;;;3.72;;
15603;SDS011;7902;49.042;9.092;2022-07-29T08:35:24;14.90;;;2.85;;
15603;SDS011;7902;49.042;9.092;2022-07-29T08:37:51;15.63;;;3.35;;
15603;SDS011;7902;49.042;9.092;2022-07-29T08:40:17;18.35;;;3.58;;
15603;SDS011;7902;49.042;9.092;2022-07-29T08:42:45;16.23;;;3.30;;
15603;SDS011;7902;49.042;9.092;2022-07-29T08:45:11;26.80;;;3.58;;
15603;SDS011;7902;49.042;9.092;2022-07-29T08:47:38;28.30;;;3.80;;
15603;SDS011;7902;49.042;9.092;2022-07-29T08:50:08;19.90;;;3.20;;
15603;SDS011;7902;49.042;9.092;2022-07-29T08:52:39;16.63;;;4.00;;
15603;SDS011;7902;49.042;9.092;2022-07-29T08:55:07;21.40;;;3.38;;
15603;SDS011;7902;49.042;9.092;2022-07-29T08:57:34;15.10;;;2.80;;
15603;SDS011;7902;49.042;9.092;2022-07-29T09:00:02;14.10;;;2.95;;
15603;SDS011;7902;49.042;9.092;2022-07-29T09:02:32;17.42;;;3.00;;
15603;SDS011;7902;49.042;9.092;2022-07-29T09:05:04;17.95;;;3.78;;
15603;SDS011;7902;49.042;9.092;2022-07-29T09:07:31;30.42;;;3.65;;
15603;SDS011;7902;49.042;9.092;2022-07-29T09:09:58;19.00;;;3.38;;
15603;SDS011;7902;49.042;9.092;2022-07-29T09:12:24;19.30;;;3.25;;
15603;SDS011;7902;49.042;9.092;2022-07-29T09:14:51;18.27;;;3.60;;
15603;SDS011;7902;49.042;9.092;2022-07-29T09:17:38;18.48;;;2.97;;
15603;SDS011;7902;49.042;9.092;2022-07-29T09:20:09;20.42;;;2.90;;
15603;SDS011;7902;49.042;9.092;2022-07-29T09:22:36;15.52;;;3.53;;
15603;SDS011;7902;49.042;9.092;2022-07-29T09:25:02;15.50;;;3.13;;
15603;SDS011;7902;49.042;9.092;2022-07-29T09:27:28;24.40;;;3.88;;
15603;SDS011;7902;49.042;9.092;2022-07-29T09:30:28;20.38;;;3.10;;
15603;SDS011;7902;49.042;9.092;2022-07-29T09:32:58;15.82;;;2.92;;
15603;SDS011;7902;49.042;9.092;2022-07-29T09:35:28;17.85;;;3.30;;
15603;SDS011;7902;49.042;9.092;2022-07-29T09:37:55;16.40;;;3.08;;
15603;SDS011;7902;49.042;9.092;2022-07-29T09:40:26;24.80;;;3.28;;
15603;SDS011;7902;49.042;9.092;2022-07-29T09:42:53;18.58;;;3.28;;
15603;SDS011;7902;49.042;9.092;2022-07-29T09:45:30;20.42;;;2.70;;
15603;SDS011;7902;49.042;9.092;2022-07-29T09:47:57;18.27;;;2.97;;
15603;SDS011;7902;49.042;9.092;2022-07-29T09:50:38;26.25;;;3.10;;
15603;SDS011;7902;49.042;9.092;2022-07-29T09:53:05;17.63;;;3.15;;
15603;SDS011;7902;49.042;9.092;2022-07-29T09:55:31;17.58;;;3.63;;
15603;SDS011;7902;49.042;9.092;2022-07-29T09:58:16;19.67;;;3.35;;
15603;SDS011;7902;49.042;9.092;2022-07-29T10:00:47;19.70;;;3.70;;
15603;SDS011;7902;49.042;9.092;2022-07-29T10:03:14;20.52;;;3.35;;
15603;SDS011;7902;49.042;9.092;2022-07-29T10:05:41;17.38;;;3.15;;
15603;SDS011;7902;49.042;9.092;2022-07-29T10:08:09;20.13;;;3.92;;
15603;SDS011;7902;49.042;9.092;2022-07-29T10:10:38;18.10;;;2.80;;
15603;SDS011;7902;49.042;9.092;2022-07-29T10:13:08;19.40;;;3.05;;
15603;SDS011;7902;49.042;9.092;2022-07-29T10:15:36;19.15;;;2.88;;
15603;SDS011;7902;49.042;9.092;2022-07-29T10:18:06;20.98;;;3.35;;
15603;SDS011;7902;49.042;9.092;2022-07-29T10:20:34;18.42;;;3.22;;
15603;SDS011;7902;49.042;9.092;2022-07-29T10:23:00;21.63;;;3.17;;
15603;SDS011;7902;49.042;9.092;2022-07-29T10:25:26;18.73;;;3.25;;
15603;SDS011;7902;49.042;9.092;2022-07-29T10:27:53;17.42;;;3.00;;
15603;SDS011;7902;49.042;9.092;2022-07-29T10:30:20;15.65;;;2.83;;
15603;SDS011;7902;49.042;9.092;2022-07-29T10:41:55;28.52;;;3.00;;
15603;SDS011;7902;49.042;9.092;2022-07-29T10:44:22;32.72;;;3.35;;
15603;SDS011;7902;49.042;9.092;2022-07-29T10:46:50;18.55;;;3.35;;
15603;SDS011;7902;49.042;9.092;2022-07-29T10:49:17;18.35;;;3.38;;
15603;SDS011;7902;49.042;9.092;2022-07-29T10:54:19;19.88;;;3.10;;
15603;SDS011;7902;49.042;9.092;2022-07-29T10:59:46;23.15;;;4.10;;
15603;SDS011;7902;49.042;9.092;2022-07-29T11:07:25;39.53;;;3.80;;
15603;SDS011;7902;49.042;9.092;2022-07-29T11:15:12;19.58;;;3.38;;
15603;SDS011;7902;49.042;9.092;2022-07-29T11:18:25;20.90;;;2.83;;
15603;SDS011;7902;49.042;9.092;2022-07-29T11:31:19;23.10;;;3.45;;
15603;SDS011;7902;49.042;9.092;2022-07-29T11:47:51;18.65;;;2.33;;
15603;SDS011;7902;49.042;9.092;2022-07-29T11:50:32;33.75;;;3.40;;
15603;SDS011;7902;49.042;9.092;2022-07-29T11:53:01;25.55;;;3.05;;
15603;SDS011;7902;49.042;9.092;2022-07-29T11:55:28;17.98;;;2.80;;
15603;SDS011;7902;49.042;9.092;2022-07-29T11:57:57;20.17;;;3.17;;
15603;SDS011;7902;49.042;9.092;2022-07-29T12:00:27;19.48;;;2.78;;
15603;SDS011;7902;49.042;9.092;2022-07-29T12:02:58;14.95;;;2.50;;
15603;SDS011;7902;49.042;9.092;2022-07-29T12:08:09;20.08;;;2.90;;
15603;SDS011;7902;49.042;9.092;2022-07-29T12:10:45;21.15;;;3.00;;
15603;SDS011;7902;49.042;9.092;2022-07-29T12:13:13;15.75;;;2.50;;
15603;SDS011;7902;49.042;9.092;2022-07-29T12:15:40;20.33;;;2.90;;
15603;SDS011;7902;49.042;9.092;2022-07-29T12:18:10;26.15;;;2.97;;
15603;SDS011;7902;49.042;9.092;2022-07-29T12:20:37;16.55;;;2.65;;
15603;SDS011;7902;49.042;9.092;2022-07-29T12:23:07;17.10;;;3.22;;
15603;SDS011;7902;49.042;9.092;2022-07-29T12:25:34;18.88;;;2.47;;
15603;SDS011;7902;49.042;9.092;2022-07-29T12:28:09;34.83;;;2.72;;
15603;SDS011;7902;49.042;9.092;2022-07-29T12:30:48;16.50;;;2.95;;
15603;SDS011;7902;49.042;9.092;2022-07-29T12:33:16;17.48;;;2.90;;
15603;SDS011;7902;49.042;9.092;2022-07-29T12:35:49;17.45;;;2.70;;
15603;SDS011;7902;49.042;9.092;2022-07-29T12:38:17;23.52;;;2.95;;
15603;SDS011;7902;49.042;9.092;2022-07-29T12:40:44;15.88;;;2.47;;
15603;SDS011;7902;49.042;9.092;2022-07-29T12:43:13;24.60;;;2.35;;
15603;SDS011;7902;49.042;9.092;2022-07-29T12:45:48;14.90;;;2.67;;
15603;SDS011;7902;49.042;9.092;2022-07-29T12:48:15;16.05;;;2.50;;
15603;SDS011;7902;49.042;9.092;2022-07-29T12:50:58;15.15;;;2.25;;
15603;SDS011;7902;49.042;9.092;2022-07-29T12:53:26;20.70;;;2.67;;
15603;SDS011;7902;49.042;9.092;2022-07-29T12:55:54;26.45;;;3.17;;
15603;SDS011;7902;49.042;9.092;2022-07-29T12:58:37;14.95;;;2.47;;
15603;SDS011;7902;49.042;9.092;2022-07-29T13:01:08;17.50;;;2.75;;
15603;SDS011;7902;49.042;9.092;2022-07-29T13:03:46;16.48;;;2.65;;
15603;SDS011;7902;49.042;9.092;2022-07-29T13:09:03;22.45;;;3.03;;
15603;SDS011;7902;49.042;9.092;2022-07-29T13:14:06;17.05;;;2.35;;
15603;SDS011;7902;49.042;9.092;2022-07-29T13:16:34;16.17;;;2.53;;
15603;SDS011;7902;49.042;9.092;2022-07-29T13:19:04;14.80;;;2.65;;
15603;SDS011;7902;49.042;9.092;2022-07-29T13:21:34;23.92;;;3.08;;
15603;SDS011;7902;49.042;9.092;2022-07-29T13:24:00;16.98;;;2.40;;
15603;SDS011;7902;49.042;9.092;2022-07-29T13:26:26;16.65;;;2.70;;
15603;SDS011;7902;49.042;9.092;2022-07-29T13:28:53;17.83;;;2.80;;
15603;SDS011;7902;49.042;9.092;2022-07-29T13:31:20;14.00;;;2.40;;
15603;SDS011;7902;49.042;9.092;2022-07-29T13:33:47;21.30;;;2.75;;
15603;SDS011;7902;49.042;9.092;2022-07-29T13:36:13;47.45;;;3.75;;
15603;SDS011;7902;49.042;9.092;2022-07-29T13:38:39;23.70;;;3.03;;
15603;SDS011;7902;49.042;9.092;2022-07-29T13:41:05;23.95;;;3.20;;
15603;SDS011;7902;49.042;9.092;2022-07-29T13:43:31;17.55;;;2.72;;
15603;SDS011;7902;49.042;9.092;2022-07-29T13:45:57;20.27;;;3.17;;
15603;SDS011;7902;49.042;9.092;2022-07-29T13:48:23;19.17;;;2.80;;
15603;SDS011;7902;49.042;9.092;2022-07-29T13:50:49;20.40;;;2.40;;
15603;SDS011;7902;49.042;9.092;2022-07-29T13:53:15;18.52;;;3.17;;
15603;SDS011;7902;49.042;9.092;2022-07-29T13:55:41;17.83;;;2.35;;
15603;SDS011;7902;49.042;9.092;2022-07-29T13:58:06;16.20;;;2.55;;
15603;SDS011;7902;49.042;9.092;2022-07-29T14:00:32;16.73;;;2.88;;
15603;SDS011;7902;49.042;9.092;2022-07-29T14:02:58;21.85;;;2.92;;
15603;SDS011;7902;49.042;9.092;2022-07-29T14:05:24;19.70;;;2.78;;
15603;SDS011;7902;49.042;9.092;2022-07-29T14:07:50;32.90;;;2.70;;
15603;SDS011;7902;49.042;9.092;2022-07-29T14:10:16;15.35;;;2.58;;
15603;SDS011;7902;49.042;9.092;2022-07-29T14:12:42;18.40;;;2.33;;
15603;SDS011;7902;49.042;9.092;2022-07-29T14:15:08;16.70;;;2.58;;
15603;SDS011;7902;49.042;9.092;2022-07-29T14:17:34;19.33;;;3.28;;
15603;SDS011;7902;49.042;9.092;2022-07-29T14:20:00;19.65;;;2.80;;
15603;SDS011;7902;49.042;9.092;2022-07-29T14:22:26;22.75;;;2.80;;
15603;SDS011;7902;49.042;9.092;2022-07-29T14:24:52;19.08;;;3.05;;
15603;SDS011;7902;49.042;9.092;2022-07-29T14:27:18;14.40;;;2.80;;
15603;SDS011;7902;49.042;9.092;2022-07-29T14:29:44;30.60;;;3.25;;
15603;SDS011;7902;49.042;9.092;2022-07-29T14:32:10;16.42;;;2.75;;
15603;SDS011;7902;49.042;9.092;2022-07-29T14:34:36;15.73;;;2.72;;
15603;SDS011;7902;49.042;9.092;2022-07-29T14:37:03;19.30;;;2.70;;
15603;SDS011;7902;49.042;9.092;2022-07-29T14:39:31;15.82;;;2.53;;
15603;SDS011;7902;49.042;9.092;2022-07-29T14:41:57;14.20;;;1.98;;
15603;SDS011;7902;49.042;9.092;2022-07-29T14:44:23;33.25;;;2.15;;
15603;SDS011;7902;49.042;9.092;2022-07-29T14:46:49;17.17;;;1.90;;
15603;SDS011;7902;49.042;9.092;2022-07-29T14:49:15;20.17;;;2.10;;
15603;SDS011;7902;49.042;9.092;2022-07-29T14:51:41;31.75;;;1.90;;
15603;SDS011;7902;49.042;9.092;2022-07-29T14:54:07;17.02;;;2.30;;
15603;SDS011;7902;49.042;9.092;2022-07-29T14:56:33;25.50;;;2.08;;
15603;SDS011;7902;49.042;9.092;2022-07-29T14:58:59;16.50;;;2.38;;
15603;SDS011;7902;49.042;9.092;2022-07-29T15:01:25;17.10;;;2.10;;
15603;SDS011;7902;49.042;9.092;2022-07-29T15:03:51;21.20;;;2.55;;
15603;SDS011;7902;49.042;9.092;2022-07-29T15:06:17;19.30;;;2.15;;
15603;SDS011;7902;49.042;9.092;2022-07-29T15:08:43;17.70;;;1.88;;
15603;SDS011;7902;49.042;9.092;2022-07-29T15:11:09;26.02;;;1.90;;
15603;SDS011;7902;49.042;9.092;2022-07-29T15:13:35;18.02;;;1.92;;
15603;SDS011;7902;49.042;9.092;2022-07-29T15:16:01;18.40;;;1.75;;
15603;SDS011;7902;49.042;9.092;2022-07-29T15:18:27;15.38;;;1.90;;
15603;SDS011;7902;49.042;9.092;2022-07-29T15:20:53;16.27;;;1.60;;
15603;SDS011;7902;49.042;9.092;2022-07-29T15:23:18;27.88;;;2.15;;
15603;SDS011;7902;49.042;9.092;2022-07-29T15:25:44;17.80;;;1.80;;
15603;SDS011;7902;49.042;9.092;2022-07-29T15:28:10;13.38;;;1.40;;
15603;SDS011;7902;49.042;9.092;2022-07-29T15:30:37;17.25;;;1.88;;
15603;SDS011;7902;49.042;9.092;2022-07-29T15:33:06;14.77;;;1.85;;
15603;SDS011;7902;49.042;9.092;2022-07-29T15:35:34;20.88;;;2.00;;
15603;SDS011;7902;49.042;9.092;2022-07-29T15:38:01;18.83;;;1.65;;
15603;SDS011;7902;49.042;9.092;2022-07-29T15:40:27;18.55;;;1.90;;
15603;SDS011;7902;49.042;9.092;2022-07-29T15:42:53;14.40;;;2.00;;
15603;SDS011;7902;49.042;9.092;2022-07-29T15:45:19;13.40;;;1.60;;
15603;SDS011;7902;49.042;9.092;2022-07-29T15:47:45;22.65;;;1.88;;
15603;SDS011;7902;49.042;9.092;2022-07-29T15:50:11;14.40;;;1.60;;
15603;SDS011;7902;49.042;9.092;2022-07-29T15:52:40;17.40;;;1.80;;
15603;SDS011;7902;49.042;9.092;2022-07-29T15:55:07;14.18;;;1.17;;
15603;SDS011;7902;49.042;9.092;2022-07-29T15:57:34;20.58;;;1.65;;
15603;SDS011;7902;49.042;9.092;2022-07-29T16:00:00;16.00;;;1.83;;
15603;SDS011;7902;49.042;9.092;2022-07-29T16:02:26;15.15;;;1.60;;
15603;SDS011;7902;49.042;9.092;2022-07-29T16:04:51;14.18;;;1.50;;
15603;SDS011;7902;49.042;9.092;2022-07-29T16:07:17;16.42;;;1.77;;
15603;SDS011;7902;49.042;9.092;2022-07-29T16:09:43;16.13;;;1.38;;